sensor_id;sensor_type;location;lat;lon;timestamp;pressure;altitude;pressure_sealevel;temperature;humidity
34983;BME280;21187;50.976;13.720;2024-03-06T00:02:17;98403.63;;;6.89;53.97
34983;BME280;21187;50.976;13.720;2024-03-06T00:07:19;98403.47;;;6.77;54.17
34983;BME280;21187;50.976;13.720;2024-03-06T00:12:21;98409.66;;;6.69;54.00
34983;BME280;21187;50.976;13.720;2024-03-06T00:17:23;98419.16;;;6.48;54.72
34983;BME280;21187;50.976;13.720;2024-03-06T00:22:25;98424.22;;;6.41;54.66
34983;BME280;21187;50.976;13.720;2024-03-06T00:27:27;98425.81;;;6.42;54.51
34983;BME280;21187;50.976;13.720;2024-03-06T00:32:28;98432.28;;;6.41;54.66
34983;BME280;21187;50.976;13.720;2024-03-06T00:37:31;98424.56;;;6.48;54.63
34983;BME280;21187;50.976;13.720;2024-03-06T00:42:32;98431.53;;;6.49;54.58
34983;BME280;21187;50.976;13.720;2024-03-06T00:47:35;98430.56;;;6.63;54.73
34983;BME280;21187;50.976;13.720;2024-03-06T00:52:36;98432.78;;;6.61;54.54
34983;BME280;21187;50.976;13.720;2024-03-06T00:57:38;98439.09;;;6.65;54.62
34983;BME280;21187;50.976;13.720;2024-03-06T01:02:40;98444.50;;;6.65;54.97
34983;BME280;21187;50.976;13.720;2024-03-06T01:07:42;98443.38;;;6.66;55.00
34983;BME280;21187;50.976;13.720;2024-03-06T01:12:44;98437.19;;;6.74;54.79
34983;BME280;21187;50.976;13.720;2024-03-06T01:17:47;98438.31;;;6.82;54.93
34983;BME280;21187;50.976;13.720;2024-03-06T01:22:49;98446.38;;;6.91;54.90
34983;BME280;21187;50.976;13.720;2024-03-06T01:27:51;98440.53;;;7.06;54.26
34983;BME280;21187;50.976;13.720;2024-03-06T01:32:52;98442.84;;;7.16;54.80
34983;BME280;21187;50.976;13.720;2024-03-06T01:37:55;98445.53;;;7.25;54.46
34983;BME280;21187;50.976;13.720;2024-03-06T01:42:57;98445.97;;;7.36;54.44
34983;BME280;21187;50.976;13.720;2024-03-06T01:47:58;98445.66;;;7.38;54.03
34983;BME280;21187;50.976;13.720;2024-03-06T01:53:00;98451.25;;;7.32;54.36
34983;BME280;21187;50.976;13.720;2024-03-06T01:58:04;98451.09;;;7.29;54.39
34983;BME280;21187;50.976;13.720;2024-03-06T02:03:07;98457.75;;;7.23;54.36
34983;BME280;21187;50.976;13.720;2024-03-06T02:08:09;98456.31;;;7.25;54.40
34983;BME280;21187;50.976;13.720;2024-03-06T02:13:12;98448.41;;;7.29;54.41
34983;BME280;21187;50.976;13.720;2024-03-06T02:18:15;98450.91;;;7.34;54.47
34983;BME280;21187;50.976;13.720;2024-03-06T02:23:17;98456.47;;;7.29;54.26
34983;BME280;21187;50.976;13.720;2024-03-06T02:28:20;98453.00;;;7.20;54.42
34983;BME280;21187;50.976;13.720;2024-03-06T02:33:21;98466.03;;;7.00;53.98
34983;BME280;21187;50.976;13.720;2024-03-06T02:38:23;98469.03;;;6.72;54.38
34983;BME280;21187;50.976;13.720;2024-03-06T02:43:25;98475.34;;;6.50;54.67
34983;BME280;21187;50.976;13.720;2024-03-06T02:48:27;98479.59;;;6.42;54.88
34983;BME280;21187;50.976;13.720;2024-03-06T02:53:29;98477.41;;;6.44;54.45
34983;BME280;21187;50.976;13.720;2024-03-06T02:58:31;98480.41;;;6.43;54.31
34983;BME280;21187;50.976;13.720;2024-03-06T03:03:33;98482.16;;;6.47;54.26
34983;BME280;21187;50.976;13.720;2024-03-06T03:08:37;98483.75;;;6.48;54.15
34983;BME280;21187;50.976;13.720;2024-03-06T03:13:39;98491.97;;;6.43;54.26
34983;BME280;21187;50.976;13.720;2024-03-06T03:18:41;98490.38;;;6.42;53.88
34983;BME280;21187;50.976;13.720;2024-03-06T03:23:43;98495.28;;;6.40;54.32
34983;BME280;21187;50.976;13.720;2024-03-06T03:28:44;98501.78;;;6.39;54.19
34983;BME280;21187;50.976;13.720;2024-03-06T03:33:46;98501.41;;;6.32;54.16
34983;BME280;21187;50.976;13.720;2024-03-06T03:38:50;98501.59;;;6.27;54.48
34983;BME280;21187;50.976;13.720;2024-03-06T03:43:51;98511.38;;;6.23;54.57
34983;BME280;21187;50.976;13.720;2024-03-06T03:48:53;98512.63;;;6.25;54.62
34983;BME280;21187;50.976;13.720;2024-03-06T03:53:55;98515.66;;;6.24;54.49
34983;BME280;21187;50.976;13.720;2024-03-06T03:58:57;98511.50;;;6.18;54.66
34983;BME280;21187;50.976;13.720;2024-03-06T04:04:00;98528.56;;;6.04;54.42
34983;BME280;21187;50.976;13.720;2024-03-06T04:09:03;98522.44;;;5.90;54.90
34983;BME280;21187;50.976;13.720;2024-03-06T04:14:07;98525.44;;;5.88;54.36
34983;BME280;21187;50.976;13.720;2024-03-06T04:19:09;98541.59;;;5.88;54.81
34983;BME280;21187;50.976;13.720;2024-03-06T04:24:11;98540.94;;;5.82;54.58
34983;BME280;21187;50.976;13.720;2024-03-06T04:29:12;98546.50;;;5.86;54.54
34983;BME280;21187;50.976;13.720;2024-03-06T04:34:15;98554.16;;;6.02;54.62
34983;BME280;21187;50.976;13.720;2024-03-06T04:39:17;98552.00;;;6.12;54.70
34983;BME280;21187;50.976;13.720;2024-03-06T04:44:19;98557.72;;;6.20;54.57
34983;BME280;21187;50.976;13.720;2024-03-06T04:49:21;98563.59;;;6.22;54.56
34983;BME280;21187;50.976;13.720;2024-03-06T04:54:22;98565.00;;;5.96;55.10
34983;BME280;21187;50.976;13.720;2024-03-06T04:59:24;98570.63;;;5.77;55.82
34983;BME280;21187;50.976;13.720;2024-03-06T05:04:26;98573.44;;;5.72;55.69
34983;BME280;21187;50.976;13.720;2024-03-06T05:09:45;98574.22;;;5.73;55.66
34983;BME280;21187;50.976;13.720;2024-03-06T05:15:05;98579.91;;;5.71;55.87
34983;BME280;21187;50.976;13.720;2024-03-06T05:20:24;98592.63;;;5.79;56.10
34983;BME280;21187;50.976;13.720;2024-03-06T05:25:44;98586.13;;;5.80;56.06
34983;BME280;21187;50.976;13.720;2024-03-06T05:31:19;98583.56;;;5.75;56.10
34983;BME280;21187;50.976;13.720;2024-03-06T05:36:39;98607.06;;;5.92;55.79
34983;BME280;21187;50.976;13.720;2024-03-06T05:42:02;98603.84;;;6.04;55.46
34983;BME280;21187;50.976;13.720;2024-03-06T05:47:22;98618.13;;;6.13;55.36
34983;BME280;21187;50.976;13.720;2024-03-06T05:52:41;98625.09;;;6.14;55.30
34983;BME280;21187;50.976;13.720;2024-03-06T05:58:01;98629.00;;;6.08;55.55
34983;BME280;21187;50.976;13.720;2024-03-06T06:03:10;98629.81;;;5.86;55.85
34983;BME280;21187;50.976;13.720;2024-03-06T06:08:15;98634.88;;;5.65;56.06
34983;BME280;21187;50.976;13.720;2024-03-06T06:13:18;98645.13;;;5.63;56.38
34983;BME280;21187;50.976;13.720;2024-03-06T06:18:20;98654.78;;;5.64;56.18
34983;BME280;21187;50.976;13.720;2024-03-06T06:23:22;98662.00;;;5.55;56.37
34983;BME280;21187;50.976;13.720;2024-03-06T06:28:25;98670.16;;;5.49;56.18
34983;BME280;21187;50.976;13.720;2024-03-06T06:33:27;98666.75;;;5.58;56.16
34983;BME280;21187;50.976;13.720;2024-03-06T06:38:30;98680.06;;;5.63;56.28
34983;BME280;21187;50.976;13.720;2024-03-06T06:43:33;98678.78;;;5.83;56.02
34983;BME280;21187;50.976;13.720;2024-03-06T06:48:35;98683.91;;;6.07;56.15
34983;BME280;21187;50.976;13.720;2024-03-06T06:53:39;98674.84;;;6.26;55.78
34983;BME280;21187;50.976;13.720;2024-03-06T06:58:44;98681.63;;;6.55;55.74
34983;BME280;21187;50.976;13.720;2024-03-06T07:03:46;98688.72;;;6.91;55.79
34983;BME280;21187;50.976;13.720;2024-03-06T07:08:48;98693.34;;;7.16;55.35
34983;BME280;21187;50.976;13.720;2024-03-06T07:13:50;98686.28;;;7.38;55.30
34983;BME280;21187;50.976;13.720;2024-03-06T07:18:53;98698.00;;;7.60;55.27
34983;BME280;21187;50.976;13.720;2024-03-06T07:23:55;98700.53;;;7.82;54.85
34983;BME280;21187;50.976;13.720;2024-03-06T07:28:57;98692.28;;;8.05;55.10
34983;BME280;21187;50.976;13.720;2024-03-06T07:34:00;98699.53;;;8.31;54.70
34983;BME280;21187;50.976;13.720;2024-03-06T07:39:03;98708.09;;;8.51;54.32
34983;BME280;21187;50.976;13.720;2024-03-06T07:44:07;98708.19;;;8.63;54.66
34983;BME280;21187;50.976;13.720;2024-03-06T07:49:10;98716.34;;;8.93;54.44
34983;BME280;21187;50.976;13.720;2024-03-06T07:54:12;98715.00;;;9.08;53.99
34983;BME280;21187;50.976;13.720;2024-03-06T07:59:14;98713.91;;;9.30;53.83
34983;BME280;21187;50.976;13.720;2024-03-06T08:04:18;98721.53;;;9.58;53.74
34983;BME280;21187;50.976;13.720;2024-03-06T08:09:20;98731.56;;;9.78;53.99
34983;BME280;21187;50.976;13.720;2024-03-06T08:14:22;98724.84;;;9.85;53.75
34983;BME280;21187;50.976;13.720;2024-03-06T08:19:25;98729.00;;;10.15;53.20
34983;BME280;21187;50.976;13.720;2024-03-06T08:24:28;98730.25;;;10.52;52.95
34983;BME280;21187;50.976;13.720;2024-03-06T08:29:30;98735.06;;;10.79;52.86
34983;BME280;21187;50.976;13.720;2024-03-06T08:34:31;98729.66;;;11.04;52.48
34983;BME280;21187;50.976;13.720;2024-03-06T08:39:33;98737.56;;;11.34;52.48
34983;BME280;21187;50.976;13.720;2024-03-06T08:44:35;98736.72;;;11.58;52.26
34983;BME280;21187;50.976;13.720;2024-03-06T08:49:37;98736.66;;;11.83;51.83
34983;BME280;21187;50.976;13.720;2024-03-06T08:54:42;98738.69;;;11.98;51.54
34983;BME280;21187;50.976;13.720;2024-03-06T08:59:44;98741.25;;;12.07;51.40
34983;BME280;21187;50.976;13.720;2024-03-06T09:04:46;98738.97;;;12.09;51.09
34983;BME280;21187;50.976;13.720;2024-03-06T09:09:48;98746.00;;;12.10;51.07
34983;BME280;21187;50.976;13.720;2024-03-06T09:14:50;98755.28;;;12.09;50.87
34983;BME280;21187;50.976;13.720;2024-03-06T09:19:52;98758.63;;;12.19;50.69
34983;BME280;21187;50.976;13.720;2024-03-06T09:25:10;98765.41;;;12.25;50.53
34983;BME280;21187;50.976;13.720;2024-03-06T09:30:16;98770.78;;;12.37;50.39
34983;BME280;21187;50.976;13.720;2024-03-06T09:35:18;98766.81;;;12.35;50.06
34983;BME280;21187;50.976;13.720;2024-03-06T09:40:22;98765.78;;;12.39;49.88
34983;BME280;21187;50.976;13.720;2024-03-06T09:45:24;98772.03;;;12.56;49.79
34983;BME280;21187;50.976;13.720;2024-03-06T09:50:26;98776.88;;;12.62;49.44
34983;BME280;21187;50.976;13.720;2024-03-06T09:55:31;98779.69;;;12.66;48.70
34983;BME280;21187;50.976;13.720;2024-03-06T10:00:37;98784.25;;;12.62;48.56
34983;BME280;21187;50.976;13.720;2024-03-06T10:05:39;98788.53;;;12.63;48.52
34983;BME280;21187;50.976;13.720;2024-03-06T10:10:42;98789.22;;;12.60;48.07
34983;BME280;21187;50.976;13.720;2024-03-06T10:16:04;98787.47;;;12.52;48.33
34983;BME280;21187;50.976;13.720;2024-03-06T10:21:11;98793.34;;;12.54;48.02
34983;BME280;21187;50.976;13.720;2024-03-06T10:26:15;98800.19;;;12.63;47.96
34983;BME280;21187;50.976;13.720;2024-03-06T10:31:26;98793.53;;;12.77;47.43
34983;BME280;21187;50.976;13.720;2024-03-06T10:36:32;98791.88;;;12.72;47.57
34983;BME280;21187;50.976;13.720;2024-03-06T10:41:34;98799.41;;;12.63;47.25
34983;BME280;21187;50.976;13.720;2024-03-06T10:46:37;98798.59;;;12.62;47.47
34983;BME280;21187;50.976;13.720;2024-03-06T10:51:40;98799.06;;;12.80;47.27
34983;BME280;21187;50.976;13.720;2024-03-06T10:56:45;98797.03;;;12.77;47.36
34983;BME280;21187;50.976;13.720;2024-03-06T11:01:48;98799.50;;;12.82;47.25
34983;BME280;21187;50.976;13.720;2024-03-06T11:06:51;98801.34;;;12.78;47.18
34983;BME280;21187;50.976;13.720;2024-03-06T11:11:54;98802.22;;;12.82;46.89
34983;BME280;21187;50.976;13.720;2024-03-06T11:17:02;98799.25;;;12.88;46.88
34983;BME280;21187;50.976;13.720;2024-03-06T11:22:05;98805.94;;;13.06;47.09
34983;BME280;21187;50.976;13.720;2024-03-06T11:27:07;98802.22;;;12.98;47.10
34983;BME280;21187;50.976;13.720;2024-03-06T11:32:11;98798.84;;;13.02;47.16
34983;BME280;21187;50.976;13.720;2024-03-06T11:37:20;98795.59;;;12.96;46.81
34983;BME280;21187;50.976;13.720;2024-03-06T11:42:33;98802.19;;;12.67;46.56
34983;BME280;21187;50.976;13.720;2024-03-06T11:47:59;98798.81;;;12.41;46.73
34983;BME280;21187;50.976;13.720;2024-03-06T11:53:01;98811.75;;;12.32;47.17
34983;BME280;21187;50.976;13.720;2024-03-06T11:58:04;98810.91;;;12.15;47.07
34983;BME280;21187;50.976;13.720;2024-03-06T12:03:06;98813.31;;;12.05;46.82
34983;BME280;21187;50.976;13.720;2024-03-06T12:08:08;98812.25;;;12.22;46.62
34983;BME280;21187;50.976;13.720;2024-03-06T12:13:10;98809.97;;;12.24;46.29
34983;BME280;21187;50.976;13.720;2024-03-06T12:18:17;98814.22;;;12.37;45.78
34983;BME280;21187;50.976;13.720;2024-03-06T12:23:22;98808.41;;;12.23;45.99
34983;BME280;21187;50.976;13.720;2024-03-06T12:28:30;98817.25;;;12.07;46.29
34983;BME280;21187;50.976;13.720;2024-03-06T12:33:33;98811.38;;;11.93;46.60
34983;BME280;21187;50.976;13.720;2024-03-06T12:38:38;98811.66;;;11.75;46.54
34983;BME280;21187;50.976;13.720;2024-03-06T12:43:41;98810.31;;;11.57;46.60
34983;BME280;21187;50.976;13.720;2024-03-06T12:48:43;98815.53;;;11.49;46.94
34983;BME280;21187;50.976;13.720;2024-03-06T12:53:45;98821.84;;;11.54;46.60
34983;BME280;21187;50.976;13.720;2024-03-06T12:58:47;98814.38;;;11.63;46.70
34983;BME280;21187;50.976;13.720;2024-03-06T13:03:48;98818.44;;;11.69;46.50
34983;BME280;21187;50.976;13.720;2024-03-06T13:08:51;98818.31;;;11.78;46.28
34983;BME280;21187;50.976;13.720;2024-03-06T13:13:52;98817.94;;;12.04;46.31
34983;BME280;21187;50.976;13.720;2024-03-06T13:18:55;98826.28;;;12.24;46.03
34983;BME280;21187;50.976;13.720;2024-03-06T13:23:59;98815.75;;;12.22;45.56
34983;BME280;21187;50.976;13.720;2024-03-06T13:29:00;98815.84;;;12.26;45.32
34983;BME280;21187;50.976;13.720;2024-03-06T13:34:03;98815.50;;;12.56;45.00
34983;BME280;21187;50.976;13.720;2024-03-06T13:39:05;98816.88;;;12.49;44.82
34983;BME280;21187;50.976;13.720;2024-03-06T13:44:07;98817.44;;;12.27;44.67
34983;BME280;21187;50.976;13.720;2024-03-06T13:49:34;98814.69;;;11.98;44.62
34983;BME280;21187;50.976;13.720;2024-03-06T13:54:40;98821.72;;;11.75;44.95
34983;BME280;21187;50.976;13.720;2024-03-06T13:59:42;98814.72;;;11.49;45.08
34983;BME280;21187;50.976;13.720;2024-03-06T14:04:44;98827.94;;;11.26;45.04
34983;BME280;21187;50.976;13.720;2024-03-06T14:09:46;98828.13;;;11.08;44.94
34983;BME280;21187;50.976;13.720;2024-03-06T14:14:48;98820.47;;;11.23;44.92
34983;BME280;21187;50.976;13.720;2024-03-06T14:19:50;98824.34;;;12.53;43.96
34983;BME280;21187;50.976;13.720;2024-03-06T14:24:52;98830.94;;;12.52;43.41
34983;BME280;21187;50.976;13.720;2024-03-06T14:29:53;98835.59;;;11.98;43.75
34983;BME280;21187;50.976;13.720;2024-03-06T14:34:56;98834.63;;;11.65;43.87
34983;BME280;21187;50.976;13.720;2024-03-06T14:39:58;98824.78;;;11.48;43.94
34983;BME280;21187;50.976;13.720;2024-03-06T14:45:03;98831.09;;;11.28;44.28
34983;BME280;21187;50.976;13.720;2024-03-06T14:50:07;98837.84;;;11.09;44.56
34983;BME280;21187;50.976;13.720;2024-03-06T14:55:09;98839.44;;;10.98;44.26
34983;BME280;21187;50.976;13.720;2024-03-06T15:00:11;98842.34;;;10.93;44.59
34983;BME280;21187;50.976;13.720;2024-03-06T15:05:13;98845.28;;;10.88;44.18
34983;BME280;21187;50.976;13.720;2024-03-06T15:10:15;98844.38;;;10.84;44.48
34983;BME280;21187;50.976;13.720;2024-03-06T15:15:17;98848.19;;;10.82;44.50
34983;BME280;21187;50.976;13.720;2024-03-06T15:20:19;98848.97;;;10.83;44.23
34983;BME280;21187;50.976;13.720;2024-03-06T15:25:21;98845.69;;;10.77;44.39
34983;BME280;21187;50.976;13.720;2024-03-06T15:30:23;98849.16;;;10.65;44.50
34983;BME280;21187;50.976;13.720;2024-03-06T15:35:28;98856.69;;;10.60;44.42
34983;BME280;21187;50.976;13.720;2024-03-06T15:40:31;98854.63;;;10.57;44.38
34983;BME280;21187;50.976;13.720;2024-03-06T15:45:34;98850.38;;;10.56;44.47
34983;BME280;21187;50.976;13.720;2024-03-06T15:50:36;98847.88;;;10.51;44.52
34983;BME280;21187;50.976;13.720;2024-03-06T15:55:39;98849.75;;;10.50;44.30
34983;BME280;21187;50.976;13.720;2024-03-06T16:00:41;98858.41;;;10.43;44.26
34983;BME280;21187;50.976;13.720;2024-03-06T16:05:43;98862.00;;;10.35;44.24
34983;BME280;21187;50.976;13.720;2024-03-06T16:10:45;98863.16;;;10.25;44.21
34983;BME280;21187;50.976;13.720;2024-03-06T16:15:47;98866.84;;;10.21;44.22
34983;BME280;21187;50.976;13.720;2024-03-06T16:20:51;98866.31;;;10.06;44.02
34983;BME280;21187;50.976;13.720;2024-03-06T16:25:54;98879.63;;;9.90;44.24
34983;BME280;21187;50.976;13.720;2024-03-06T16:30:55;98883.03;;;9.78;43.66
34983;BME280;21187;50.976;13.720;2024-03-06T16:35:58;98888.81;;;9.68;44.01
34983;BME280;21187;50.976;13.720;2024-03-06T16:41:00;98894.75;;;9.53;43.68
34983;BME280;21187;50.976;13.720;2024-03-06T16:46:02;98896.88;;;9.38;44.19
34983;BME280;21187;50.976;13.720;2024-03-06T16:51:05;98902.50;;;9.24;44.57
34983;BME280;21187;50.976;13.720;2024-03-06T16:56:06;98910.63;;;9.15;44.08
34983;BME280;21187;50.976;13.720;2024-03-06T17:01:09;98915.75;;;9.08;43.83
34983;BME280;21187;50.976;13.720;2024-03-06T17:06:11;98927.81;;;9.02;44.52
34983;BME280;21187;50.976;13.720;2024-03-06T17:11:13;98925.13;;;8.93;44.54
34983;BME280;21187;50.976;13.720;2024-03-06T17:16:15;98932.94;;;8.86;44.20
34983;BME280;21187;50.976;13.720;2024-03-06T17:21:18;98939.59;;;8.80;44.97
34983;BME280;21187;50.976;13.720;2024-03-06T17:26:20;98935.16;;;8.75;44.72
34983;BME280;21187;50.976;13.720;2024-03-06T17:31:22;98946.78;;;8.67;45.14
34983;BME280;21187;50.976;13.720;2024-03-06T17:36:23;98946.94;;;8.62;44.89
34983;BME280;21187;50.976;13.720;2024-03-06T17:41:27;98947.38;;;8.64;44.61
34983;BME280;21187;50.976;13.720;2024-03-06T17:46:32;98951.69;;;8.65;45.37
34983;BME280;21187;50.976;13.720;2024-03-06T17:51:34;98954.72;;;8.63;44.95
34983;BME280;21187;50.976;13.720;2024-03-06T17:56:37;98962.00;;;8.54;45.33
34983;BME280;21187;50.976;13.720;2024-03-06T18:01:39;98973.41;;;8.51;45.28
34983;BME280;21187;50.976;13.720;2024-03-06T18:06:42;98962.63;;;8.51;45.73
34983;BME280;21187;50.976;13.720;2024-03-06T18:11:43;98972.63;;;8.51;45.47
34983;BME280;21187;50.976;13.720;2024-03-06T18:16:46;98971.34;;;8.48;45.53
34983;BME280;21187;50.976;13.720;2024-03-06T18:21:47;98963.88;;;8.45;45.81
34983;BME280;21187;50.976;13.720;2024-03-06T18:26:49;98972.28;;;8.43;45.58
34983;BME280;21187;50.976;13.720;2024-03-06T18:31:51;98970.69;;;8.42;46.11
34983;BME280;21187;50.976;13.720;2024-03-06T18:36:53;98972.13;;;8.40;45.99
34983;BME280;21187;50.976;13.720;2024-03-06T18:41:55;98977.03;;;8.38;45.86
34983;BME280;21187;50.976;13.720;2024-03-06T18:47:12;98977.16;;;8.32;45.80
34983;BME280;21187;50.976;13.720;2024-03-06T18:52:14;98981.78;;;8.32;46.34
34983;BME280;21187;50.976;13.720;2024-03-06T18:57:17;98979.22;;;8.27;46.43
34983;BME280;21187;50.976;13.720;2024-03-06T19:02:19;98976.34;;;8.23;46.02
34983;BME280;21187;50.976;13.720;2024-03-06T19:07:21;98990.31;;;8.16;45.85
34983;BME280;21187;50.976;13.720;2024-03-06T19:12:23;98997.44;;;8.12;46.33
34983;BME280;21187;50.976;13.720;2024-03-06T19:17:25;98998.09;;;8.09;46.13
34983;BME280;21187;50.976;13.720;2024-03-06T19:22:28;98995.97;;;8.06;45.78
34983;BME280;21187;50.976;13.720;2024-03-06T19:27:30;99003.88;;;7.94;46.41
34983;BME280;21187;50.976;13.720;2024-03-06T19:32:36;98997.53;;;7.90;46.44
34983;BME280;21187;50.976;13.720;2024-03-06T19:37:52;99020.34;;;7.83;46.89
34983;BME280;21187;50.976;13.720;2024-03-06T19:42:54;99017.91;;;7.73;46.81
34983;BME280;21187;50.976;13.720;2024-03-06T19:47:56;99014.75;;;7.71;47.12
34983;BME280;21187;50.976;13.720;2024-03-06T19:52:59;99021.72;;;7.72;47.28
34983;BME280;21187;50.976;13.720;2024-03-06T19:58:01;99019.38;;;7.79;47.07
34983;BME280;21187;50.976;13.720;2024-03-06T20:03:03;99011.94;;;7.85;46.76
34983;BME280;21187;50.976;13.720;2024-03-06T20:08:06;99024.63;;;7.85;47.07
34983;BME280;21187;50.976;13.720;2024-03-06T20:13:09;99013.22;;;7.88;47.13
34983;BME280;21187;50.976;13.720;2024-03-06T20:18:11;99008.13;;;7.86;46.70
34983;BME280;21187;50.976;13.720;2024-03-06T20:23:13;99014.81;;;7.89;46.79
34983;BME280;21187;50.976;13.720;2024-03-06T20:28:16;99009.91;;;7.91;46.72
34983;BME280;21187;50.976;13.720;2024-03-06T20:33:18;99008.81;;;7.92;46.75
34983;BME280;21187;50.976;13.720;2024-03-06T20:38:21;99001.81;;;7.91;47.14
34983;BME280;21187;50.976;13.720;2024-03-06T20:43:26;99009.09;;;7.90;47.23
34983;BME280;21187;50.976;13.720;2024-03-06T20:48:28;99016.91;;;7.92;47.33
34983;BME280;21187;50.976;13.720;2024-03-06T20:53:31;99004.53;;;7.91;47.19
34983;BME280;21187;50.976;13.720;2024-03-06T20:58:33;99020.19;;;7.89;47.43
34983;BME280;21187;50.976;13.720;2024-03-06T21:03:35;99012.13;;;7.89;47.33
34983;BME280;21187;50.976;13.720;2024-03-06T21:08:39;99010.50;;;7.88;47.34
34983;BME280;21187;50.976;13.720;2024-03-06T21:13:42;99008.94;;;7.87;47.62
34983;BME280;21187;50.976;13.720;2024-03-06T21:18:44;99008.94;;;7.87;47.28
34983;BME280;21187;50.976;13.720;2024-03-06T21:23:47;99011.16;;;7.85;47.28
34983;BME280;21187;50.976;13.720;2024-03-06T21:28:49;99012.38;;;7.78;47.80
34983;BME280;21187;50.976;13.720;2024-03-06T21:33:55;99005.84;;;7.71;47.87
34983;BME280;21187;50.976;13.720;2024-03-06T21:38:58;99009.59;;;7.61;48.15
34983;BME280;21187;50.976;13.720;2024-03-06T21:44:00;99008.31;;;7.58;48.34
34983;BME280;21187;50.976;13.720;2024-03-06T21:49:05;99015.88;;;7.47;48.43
34983;BME280;21187;50.976;13.720;2024-03-06T21:54:08;99009.25;;;7.31;48.55
34983;BME280;21187;50.976;13.720;2024-03-06T21:59:10;99018.69;;;7.20;48.90
34983;BME280;21187;50.976;13.720;2024-03-06T22:04:11;99015.06;;;7.24;48.77
34983;BME280;21187;50.976;13.720;2024-03-06T22:09:17;99017.72;;;7.38;48.60
34983;BME280;21187;50.976;13.720;2024-03-06T22:14:19;99012.41;;;7.47;48.08
34983;BME280;21187;50.976;13.720;2024-03-06T22:19:21;99016.34;;;7.49;47.95
34983;BME280;21187;50.976;13.720;2024-03-06T22:24:23;99017.34;;;7.54;47.93
34983;BME280;21187;50.976;13.720;2024-03-06T22:29:25;99018.44;;;7.53;48.22
34983;BME280;21187;50.976;13.720;2024-03-06T22:34:29;99024.72;;;7.39;48.80
34983;BME280;21187;50.976;13.720;2024-03-06T22:39:31;99012.94;;;7.35;48.88
34983;BME280;21187;50.976;13.720;2024-03-06T22:44:33;99015.28;;;7.28;49.26
34983;BME280;21187;50.976;13.720;2024-03-06T22:49:35;99012.25;;;7.29;49.26
34983;BME280;21187;50.976;13.720;2024-03-06T22:54:37;99002.78;;;7.32;49.09
34983;BME280;21187;50.976;13.720;2024-03-06T22:59:39;99008.28;;;7.27;49.33
34983;BME280;21187;50.976;13.720;2024-03-06T23:04:42;99009.13;;;7.36;49.39
34983;BME280;21187;50.976;13.720;2024-03-06T23:09:44;99006.19;;;7.46;48.75
34983;BME280;21187;50.976;13.720;2024-03-06T23:14:48;99008.75;;;7.52;48.90
34983;BME280;21187;50.976;13.720;2024-03-06T23:19:50;99010.53;;;7.56;48.92
34983;BME280;21187;50.976;13.720;2024-03-06T23:24:53;98998.94;;;7.56;49.12
34983;BME280;21187;50.976;13.720;2024-03-06T23:29:55;99011.94;;;7.54;49.11
34983;BME280;21187;50.976;13.720;2024-03-06T23:34:57;99010.34;;;7.53;49.49
34983;BME280;21187;50.976;13.720;2024-03-06T23:40:04;99005.28;;;7.51;49.39
34983;BME280;21187;50.976;13.720;2024-03-06T23:45:07;99003.19;;;7.48;49.72
34983;BME280;21187;50.976;13.720;2024-03-06T23:50:11;99012.69;;;7.45;49.59
34983;BME280;21187;50.976;13.720;2024-03-06T23:55:14;99010.78;;;7.46;49.85
